createdAt,value
2019-03-29T00:00:48.223Z,32.85
2019-03-29T00:03:14.368Z,33.75
2019-03-29T00:05:40.552Z,32.46
2019-03-29T00:08:06.715Z,32.09
2019-03-29T00:10:32.863Z,31.52
2019-03-29T00:12:59.475Z,31.56
2019-03-29T00:15:25.630Z,31.79
2019-03-29T00:17:51.888Z,32.54
2019-03-29T00:20:18.099Z,31.96
2019-03-29T00:22:44.254Z,33.33
2019-03-29T00:25:10.506Z,32.23
2019-03-29T00:27:36.698Z,33.81
2019-03-29T00:30:04.554Z,33.02
2019-03-29T00:32:31.252Z,33.19
2019-03-29T00:34:58.298Z,31.85
2019-03-29T00:37:24.455Z,31.74
2019-03-29T00:39:50.610Z,31.46
2019-03-29T00:42:17.158Z,32.33
2019-03-29T00:44:43.555Z,32.93
2019-03-29T00:47:09.750Z,31.91
2019-03-29T00:49:36.066Z,32.49
2019-03-29T00:52:02.218Z,32.68
2019-03-29T00:54:28.395Z,31.32
2019-03-29T00:56:54.569Z,31.26
2019-03-29T00:59:20.723Z,31.27
2019-03-29T01:01:46.877Z,31.14
2019-03-29T01:04:13.070Z,31.85
2019-03-29T01:06:39.491Z,31.03
2019-03-29T01:09:05.674Z,32.51
2019-03-29T01:11:31.863Z,33.29
2019-03-29T01:13:58.028Z,33.08
2019-03-29T01:16:24.200Z,31.89
2019-03-29T01:18:50.391Z,31.77
2019-03-29T01:21:16.548Z,32.30
2019-03-29T01:23:42.699Z,33.08
2019-03-29T01:26:08.992Z,32.65
2019-03-29T01:28:35.139Z,33.30
2019-03-29T01:31:01.299Z,32.55
2019-03-29T01:33:27.484Z,31.87
2019-03-29T01:35:53.644Z,31.72
2019-03-29T01:38:22.072Z,31.88
2019-03-29T01:40:47.888Z,32.62
2019-03-29T01:43:14.047Z,33.08
2019-03-29T01:45:40.204Z,32.77
2019-03-29T01:48:06.398Z,33.03
2019-03-29T01:50:33.051Z,33.77
2019-03-29T01:52:59.212Z,33.53
2019-03-29T01:55:25.402Z,33.97
2019-03-29T01:57:51.559Z,34.40
2019-03-29T02:00:21.309Z,34.17
2019-03-29T02:02:47.489Z,34.36
2019-03-29T02:05:13.643Z,33.91
2019-03-29T02:07:39.799Z,34.56
2019-03-29T02:10:07.820Z,34.34
2019-03-29T02:12:34.217Z,34.94
2019-03-29T02:15:00.368Z,35.01
2019-03-29T02:17:26.540Z,34.67
2019-03-29T02:19:52.710Z,34.23
2019-03-29T02:22:18.853Z,34.68
2019-03-29T02:24:45.047Z,33.87
2019-03-29T02:27:11.199Z,33.98
2019-03-29T02:29:37.539Z,34.38
2019-03-29T02:32:03.737Z,34.74
2019-03-29T02:34:29.881Z,34.96
2019-03-29T02:36:56.034Z,35.37
2019-03-29T02:39:22.228Z,35.85
2019-03-29T02:41:48.377Z,35.68
2019-03-29T02:44:14.533Z,35.60
2019-03-29T02:46:40.731Z,35.39
2019-03-29T02:49:06.990Z,35.51
2019-03-29T02:51:33.737Z,37.13
2019-03-29T02:53:59.927Z,36.82
2019-03-29T02:56:26.095Z,36.87
2019-03-29T02:58:52.250Z,36.41
2019-03-29T03:01:18.433Z,38.71
2019-03-29T03:03:44.582Z,36.86
2019-03-29T03:06:10.853Z,36.14
2019-03-29T03:08:37.035Z,35.62
2019-03-29T03:11:03.718Z,35.40
2019-03-29T03:13:29.952Z,35.53
2019-03-29T03:15:56.274Z,35.40
2019-03-29T03:18:22.693Z,35.20
2019-03-29T03:20:48.848Z,35.53
2019-03-29T03:23:15.037Z,35.47
2019-03-29T03:25:41.191Z,35.88
2019-03-29T03:28:07.454Z,35.25
2019-03-29T03:30:33.652Z,35.37
2019-03-29T03:32:59.916Z,35.33
2019-03-29T03:35:26.084Z,35.26
2019-03-29T03:37:52.254Z,35.31
2019-03-29T03:40:18.393Z,35.33
2019-03-29T03:42:44.570Z,35.41
2019-03-29T03:45:10.761Z,34.99
2019-03-29T03:47:38.418Z,35.75
2019-03-29T03:50:06.396Z,35.73
2019-03-29T03:52:32.602Z,35.87
2019-03-29T03:54:58.770Z,36.90
2019-03-29T03:57:25.730Z,35.37
2019-03-29T03:59:53.813Z,35.20
2019-03-29T04:02:19.969Z,34.95
2019-03-29T04:04:46.144Z,35.07
2019-03-29T04:07:12.453Z,35.82
2019-03-29T04:09:49.609Z,36.32
2019-03-29T04:12:06.893Z,35.43
2019-03-29T04:14:33.093Z,35.73
2019-03-29T04:16:59.243Z,35.92
2019-03-29T04:19:25.404Z,35.65
2019-03-29T04:21:51.679Z,36.61
2019-03-29T04:24:17.837Z,36.65
2019-03-29T04:26:43.987Z,36.85
2019-03-29T04:29:10.177Z,37.29
2019-03-29T04:31:36.332Z,36.51
2019-03-29T04:34:02.505Z,36.88
2019-03-29T04:36:28.683Z,36.63
2019-03-29T04:38:54.948Z,35.87
2019-03-29T04:41:21.101Z,36.16
2019-03-29T04:43:47.279Z,35.89
2019-03-29T04:46:13.534Z,35.77
2019-03-29T04:48:39.682Z,36.00
2019-03-29T04:51:05.875Z,35.60
2019-03-29T04:53:32.181Z,36.35
2019-03-29T04:55:58.334Z,36.38
2019-03-29T04:58:24.514Z,36.38
2019-03-29T05:00:50.684Z,36.75
2019-03-29T05:03:16.843Z,36.97
2019-03-29T05:05:43.042Z,36.87
2019-03-29T05:08:09.282Z,36.35
2019-03-29T05:10:35.439Z,36.08
2019-03-29T05:13:01.620Z,34.98
2019-03-29T05:15:27.776Z,33.93
2019-03-29T05:17:53.926Z,32.99
2019-03-29T05:20:20.236Z,32.20
2019-03-29T05:22:46.381Z,32.43
2019-03-29T05:25:12.645Z,31.29
2019-03-29T05:27:38.863Z,31.72
2019-03-29T05:30:05.485Z,31.87
2019-03-29T05:32:31.635Z,31.70
2019-03-29T05:34:57.831Z,32.36
2019-03-29T05:37:24.083Z,32.53
2019-03-29T05:39:50.231Z,31.06
2019-03-29T05:42:16.511Z,30.81
2019-03-29T05:44:42.675Z,30.54
2019-03-29T05:47:08.814Z,30.49
2019-03-29T05:49:35.035Z,30.02
2019-03-29T05:52:01.184Z,27.49
2019-03-29T05:54:27.336Z,24.37
2019-03-29T05:56:53.639Z,22.85
2019-03-29T05:59:19.783Z,21.86
2019-03-29T06:01:45.940Z,21.51
2019-03-29T06:04:12.234Z,21.26
2019-03-29T06:06:38.387Z,20.99
2019-03-29T06:09:04.867Z,20.20
2019-03-29T06:11:31.050Z,19.43
2019-03-29T06:13:57.208Z,20.68
2019-03-29T06:16:23.383Z,20.31
2019-03-29T06:18:49.909Z,20.17
2019-03-29T06:21:16.351Z,19.64
2019-03-29T06:23:42.573Z,19.36
2019-03-29T06:26:10.036Z,19.36
2019-03-29T06:28:38.098Z,20.05
2019-03-29T06:31:04.486Z,19.65
2019-03-29T06:33:30.695Z,19.42
2019-03-29T06:35:59.135Z,19.17
2019-03-29T06:38:28.139Z,19.68
2019-03-29T06:41:02.746Z,18.91
2019-03-29T06:43:22.426Z,19.41
2019-03-29T06:45:48.782Z,19.51
2019-03-29T06:48:16.522Z,20.67
2019-03-29T06:50:42.898Z,22.97
2019-03-29T06:53:09.151Z,25.36
2019-03-29T06:55:35.636Z,27.18
2019-03-29T06:58:01.825Z,26.19
2019-03-29T07:00:28.010Z,24.49
2019-03-29T07:02:54.210Z,25.07
2019-03-29T07:05:20.477Z,24.64
2019-03-29T07:07:46.630Z,24.50
2019-03-29T07:10:12.828Z,24.27
2019-03-29T07:12:39.260Z,23.62
2019-03-29T07:15:05.717Z,22.05
2019-03-29T07:17:31.906Z,22.12
2019-03-29T07:19:58.072Z,23.19
2019-03-29T07:22:25.756Z,23.16
2019-03-29T07:24:51.935Z,23.97
2019-03-29T07:27:18.107Z,25.01
2019-03-29T07:29:44.267Z,24.97
2019-03-29T07:32:10.463Z,24.08
2019-03-29T07:34:36.628Z,23.40
2019-03-29T07:37:05.638Z,23.42
2019-03-29T07:39:30.898Z,23.38
2019-03-29T07:41:57.071Z,23.60
2019-03-29T07:44:23.243Z,23.30
2019-03-29T07:46:49.440Z,23.56
2019-03-29T07:49:15.504Z,22.86
2019-03-29T07:51:41.652Z,22.18
2019-03-29T07:54:07.869Z,21.51
2019-03-29T07:56:34.128Z,22.67
2019-03-29T07:59:00.279Z,22.74
2019-03-29T08:01:26.468Z,22.30
2019-03-29T08:03:53.325Z,22.48
2019-03-29T08:06:19.956Z,22.32
2019-03-29T08:08:46.139Z,23.18
2019-03-29T08:11:25.447Z,23.29
2019-03-29T08:13:40.484Z,22.10
2019-03-29T08:16:06.837Z,21.97
2019-03-29T08:18:33.026Z,22.21
2019-03-29T08:20:59.178Z,21.92
2019-03-29T08:23:28.610Z,21.74
2019-03-29T08:25:53.454Z,20.99
2019-03-29T08:28:19.609Z,21.13
2019-03-29T08:30:45.795Z,21.25
2019-03-29T08:33:11.955Z,22.17
2019-03-29T08:35:38.117Z,20.98
2019-03-29T08:38:06.229Z,21.54
2019-03-29T08:40:32.459Z,21.31
2019-03-29T08:42:58.617Z,21.98
2019-03-29T08:45:24.911Z,20.97
2019-03-29T08:47:51.110Z,20.37
2019-03-29T08:50:17.262Z,20.27
2019-03-29T08:52:43.494Z,19.48
2019-03-29T08:55:11.073Z,20.54
2019-03-29T08:57:37.298Z,19.97
2019-03-29T09:00:07.517Z,20.25
2019-03-29T09:02:34.069Z,20.19
2019-03-29T09:05:00.377Z,20.28
2019-03-29T09:07:28.127Z,22.48
2019-03-29T09:09:54.464Z,21.88
2019-03-29T09:12:20.620Z,22.80
2019-03-29T09:14:46.909Z,21.15
2019-03-29T09:17:13.062Z,19.04
2019-03-29T09:19:39.279Z,19.15
2019-03-29T09:22:05.483Z,21.79
2019-03-29T09:24:31.632Z,20.22
2019-03-29T09:26:57.888Z,20.11
2019-03-29T09:29:24.181Z,19.16
2019-03-29T09:31:50.337Z,21.29
2019-03-29T09:34:16.503Z,22.65
2019-03-29T09:36:42.692Z,22.09
2019-03-29T09:39:08.853Z,20.84
2019-03-29T09:44:01.039Z,20.74
2019-03-29T09:46:27.246Z,21.30
2019-03-29T09:48:53.461Z,20.10
2019-03-29T09:51:19.669Z,20.33
2019-03-29T09:53:45.819Z,19.77
2019-03-29T09:56:11.987Z,19.72
2019-03-29T09:58:39.322Z,18.98
2019-03-29T10:01:05.481Z,20.53
2019-03-29T10:03:31.657Z,19.48
2019-03-29T10:05:57.945Z,19.15
2019-03-29T10:08:24.098Z,20.02
2019-03-29T10:10:50.263Z,19.90
2019-03-29T10:13:16.664Z,21.40
2019-03-29T10:15:42.843Z,20.49
2019-03-29T10:18:08.978Z,19.58
2019-03-29T10:20:35.171Z,20.22
2019-03-29T10:23:01.330Z,20.69
2019-03-29T10:25:27.492Z,20.41
2019-03-29T10:27:53.807Z,21.57
2019-03-29T10:30:26.248Z,20.11
2019-03-29T10:32:55.369Z,19.73
2019-03-29T10:35:20.509Z,19.90
2019-03-29T10:37:46.774Z,20.09
2019-03-29T10:40:12.927Z,21.03
2019-03-29T10:42:40.311Z,20.38
2019-03-29T10:45:06.811Z,19.28
2019-03-29T10:47:43.109Z,18.95
2019-03-29T10:50:01.131Z,18.74
2019-03-29T10:52:27.282Z,18.55
2019-03-29T10:54:53.439Z,19.83
2019-03-29T10:57:19.622Z,19.82
2019-03-29T10:59:46.475Z,21.01
2019-03-29T11:02:12.642Z,21.35
2019-03-29T11:04:38.845Z,21.43
2019-03-29T11:07:05.112Z,20.10
2019-03-29T11:09:31.367Z,20.30
2019-03-29T11:11:57.655Z,21.84
2019-03-29T11:14:23.824Z,21.93
2019-03-29T11:16:50.083Z,22.13
2019-03-29T11:19:16.278Z,21.41
2019-03-29T11:21:42.452Z,21.90
2019-03-29T11:24:09.328Z,21.69
2019-03-29T11:26:35.787Z,23.30
2019-03-29T11:29:01.943Z,21.96
2019-03-29T11:31:28.109Z,22.34
2019-03-29T11:33:54.288Z,21.87
2019-03-29T11:36:20.451Z,20.59
2019-03-29T11:38:46.730Z,20.59
2019-03-29T11:41:12.908Z,20.48
2019-03-29T11:43:39.067Z,20.71
2019-03-29T11:46:05.337Z,19.81
2019-03-29T11:48:31.540Z,20.87
2019-03-29T11:50:57.699Z,22.59
2019-03-29T11:53:23.983Z,22.97
2019-03-29T11:55:50.164Z,22.65
2019-03-29T11:58:16.327Z,22.68
2019-03-29T12:00:42.583Z,22.33
2019-03-29T12:03:09.908Z,22.98
2019-03-29T12:05:36.577Z,22.21
2019-03-29T12:08:03.713Z,23.72
2019-03-29T12:10:29.911Z,23.74
2019-03-29T12:12:56.067Z,22.99
2019-03-29T12:15:22.523Z,22.73
2019-03-29T12:17:48.824Z,23.71
2019-03-29T12:20:15.089Z,22.60
2019-03-29T12:22:41.245Z,22.57
2019-03-29T12:25:07.951Z,23.78
2019-03-29T12:27:34.206Z,23.32
2019-03-29T12:30:00.405Z,23.07
2019-03-29T12:32:26.651Z,22.08
2019-03-29T12:34:52.925Z,22.40
2019-03-29T12:37:19.083Z,22.99
2019-03-29T12:39:45.280Z,22.44
2019-03-29T12:42:11.436Z,23.42
2019-03-29T12:44:37.583Z,22.75
2019-03-29T12:47:03.796Z,24.13
2019-03-29T12:49:29.948Z,23.28
2019-03-29T12:51:56.110Z,23.00
2019-03-29T12:54:22.376Z,23.23
2019-03-29T12:56:48.575Z,23.00
2019-03-29T12:59:14.774Z,22.56
2019-03-29T13:01:41.764Z,24.65
2019-03-29T13:04:09.767Z,25.03
2019-03-29T13:06:35.984Z,24.83
2019-03-29T13:09:04.073Z,24.39
2019-03-29T13:11:30.329Z,22.91
2019-03-29T13:14:09.387Z,21.76
2019-03-29T13:16:27.413Z,22.53
2019-03-29T13:18:53.774Z,21.30
2019-03-29T13:21:20.141Z,20.67
2019-03-29T13:23:46.334Z,22.39
2019-03-29T13:26:12.560Z,22.07
2019-03-29T13:28:38.844Z,22.99
2019-03-29T13:31:05.039Z,22.86
2019-03-29T13:33:31.234Z,23.06
2019-03-29T13:35:57.471Z,22.31
2019-03-29T13:38:23.749Z,24.68
2019-03-29T13:40:49.907Z,24.76
2019-03-29T13:43:16.054Z,23.08
2019-03-29T13:45:42.276Z,23.80
2019-03-29T13:48:09.996Z,22.65
2019-03-29T13:50:36.158Z,23.72
2019-03-29T13:53:02.344Z,24.72
2019-03-29T13:55:28.603Z,24.73
2019-03-29T13:57:54.761Z,25.04
2019-03-29T14:00:21.076Z,24.20
2019-03-29T14:02:47.239Z,22.29
2019-03-29T14:05:13.438Z,22.60
2019-03-29T14:07:39.694Z,23.64
2019-03-29T14:10:07.666Z,24.39
2019-03-29T14:12:33.847Z,24.13
2019-03-29T14:15:01.421Z,24.31
2019-03-29T14:17:28.077Z,24.35
2019-03-29T14:19:54.237Z,24.75
2019-03-29T14:22:20.434Z,25.56
2019-03-29T14:24:46.592Z,24.24
2019-03-29T14:27:12.740Z,23.10
2019-03-29T14:29:38.923Z,24.31
2019-03-29T14:32:05.102Z,23.58
2019-03-29T14:34:31.250Z,22.62
2019-03-29T14:36:59.360Z,23.01
2019-03-29T14:39:25.603Z,22.98
2019-03-29T14:41:51.760Z,24.01
2019-03-29T14:44:17.965Z,23.20
2019-03-29T14:46:44.223Z,23.65
2019-03-29T14:49:10.375Z,23.10
2019-03-29T14:51:36.568Z,23.20
2019-03-29T14:54:02.831Z,23.91
2019-03-29T14:56:29.081Z,23.52
2019-03-29T14:58:55.269Z,23.75
2019-03-29T15:01:21.430Z,23.85
2019-03-29T15:03:47.790Z,23.50
2019-03-29T15:06:14.085Z,24.77
2019-03-29T15:08:40.242Z,24.54
2019-03-29T15:11:06.483Z,24.73
2019-03-29T15:13:32.676Z,24.94
2019-03-29T15:15:58.927Z,24.28
2019-03-29T15:18:25.094Z,25.38
2019-03-29T15:20:53.873Z,25.56
2019-03-29T15:23:19.754Z,25.26
2019-03-29T15:25:45.915Z,26.41
2019-03-29T15:28:12.189Z,26.21
2019-03-29T15:30:38.385Z,26.03
2019-03-29T15:33:04.552Z,25.01
2019-03-29T15:35:30.770Z,24.09
2019-03-29T15:37:56.931Z,24.62
2019-03-29T15:40:23.086Z,25.57
2019-03-29T15:42:49.428Z,25.35
2019-03-29T15:45:20.802Z,25.85
2019-03-29T15:47:43.736Z,25.44
2019-03-29T15:50:09.932Z,25.69
2019-03-29T15:52:36.079Z,26.09
2019-03-29T15:55:04.885Z,26.52
2019-03-29T15:57:31.055Z,26.19
2019-03-29T15:59:57.202Z,25.36
2019-03-29T16:02:23.365Z,26.96
2019-03-29T16:04:49.702Z,27.06
2019-03-29T16:07:15.858Z,26.86
2019-03-29T16:09:42.024Z,27.16
2019-03-29T16:12:08.217Z,27.14
2019-03-29T16:14:34.380Z,27.09
2019-03-29T16:17:00.647Z,27.73
2019-03-29T16:19:26.876Z,27.55
2019-03-29T16:21:53.044Z,27.67
2019-03-29T16:24:19.201Z,27.36
2019-03-29T16:26:45.390Z,27.15
2019-03-29T16:29:11.559Z,26.98
2019-03-29T16:31:37.824Z,27.03
2019-03-29T16:34:04.038Z,27.15
2019-03-29T16:36:30.208Z,26.45
2019-03-29T16:38:56.372Z,27.64
2019-03-29T16:41:22.577Z,27.57
2019-03-29T16:43:48.741Z,28.00
2019-03-29T16:46:15.000Z,27.89
2019-03-29T16:48:41.300Z,28.03
2019-03-29T16:51:08.498Z,27.34
2019-03-29T16:53:34.663Z,27.81
2019-03-29T16:56:00.855Z,27.36
2019-03-29T16:58:27.020Z,27.67
2019-03-29T17:00:53.300Z,28.15
2019-03-29T17:03:19.489Z,27.82
2019-03-29T17:05:45.705Z,27.81
2019-03-29T17:08:11.866Z,27.68
2019-03-29T17:10:38.147Z,27.60
2019-03-29T17:13:04.306Z,27.68
2019-03-29T17:15:30.474Z,27.62
2019-03-29T17:17:56.687Z,27.89
2019-03-29T17:20:22.841Z,27.87
2019-03-29T17:22:49.019Z,27.84
2019-03-29T17:25:15.222Z,27.47
2019-03-29T17:27:41.378Z,27.37
2019-03-29T17:30:08.646Z,27.67
2019-03-29T17:32:34.844Z,27.38
2019-03-29T17:35:01.013Z,27.19
2019-03-29T17:37:27.200Z,27.20
2019-03-29T17:39:53.510Z,27.43
2019-03-29T17:42:19.759Z,27.93
2019-03-29T17:44:46.199Z,27.67
2019-03-29T17:47:12.524Z,27.53
2019-03-29T17:49:38.795Z,27.69
2019-03-29T17:52:05.096Z,29.29
2019-03-29T17:54:31.315Z,28.65
2019-03-29T17:56:57.482Z,28.55
2019-03-29T17:59:23.644Z,28.74
2019-03-29T18:01:49.957Z,29.03
2019-03-29T18:04:16.127Z,30.01
2019-03-29T18:06:42.387Z,29.39
2019-03-29T18:09:08.592Z,29.85
2019-03-29T18:11:35.348Z,29.78
2019-03-29T18:14:01.507Z,29.02
2019-03-29T18:16:30.938Z,29.03
2019-03-29T18:18:55.882Z,28.53
2019-03-29T18:21:22.143Z,28.22
2019-03-29T18:23:48.651Z,28.18
2019-03-29T18:26:14.808Z,28.24
2019-03-29T18:28:40.975Z,28.57
2019-03-29T18:31:07.379Z,28.23
2019-03-29T18:33:34.143Z,28.46
2019-03-29T18:36:01.118Z,28.54
2019-03-29T18:38:29.005Z,28.82
2019-03-29T18:40:55.278Z,29.03
2019-03-29T18:43:21.437Z,29.39
2019-03-29T18:45:47.639Z,29.24
2019-03-29T18:48:13.806Z,28.73
2019-03-29T18:50:39.968Z,28.79
2019-03-29T18:53:06.163Z,28.47
2019-03-29T18:55:32.330Z,28.25
2019-03-29T18:57:58.499Z,28.24
2019-03-29T19:00:30.740Z,28.27
2019-03-29T19:02:56.910Z,27.83
2019-03-29T19:05:24.579Z,28.16
2019-03-29T19:07:50.821Z,27.92
2019-03-29T19:10:17.031Z,28.18
2019-03-29T19:12:43.201Z,27.75
2019-03-29T19:15:09.402Z,27.89
2019-03-29T19:17:35.565Z,27.69
2019-03-29T19:20:01.730Z,28.31
2019-03-29T19:22:28.065Z,27.68
2019-03-29T19:24:54.597Z,28.06
2019-03-29T19:27:20.768Z,28.23
2019-03-29T19:29:47.257Z,28.06
2019-03-29T19:32:14.154Z,28.49
2019-03-29T19:34:40.487Z,28.65
2019-03-29T19:37:06.698Z,28.66
2019-03-29T19:39:32.861Z,28.28
2019-03-29T19:41:59.022Z,29.12
2019-03-29T19:44:25.222Z,29.09
2019-03-29T19:46:51.378Z,28.31
2019-03-29T19:49:17.551Z,28.57
2019-03-29T19:51:43.745Z,29.39
2019-03-29T19:54:09.910Z,29.39
2019-03-29T19:56:36.092Z,29.33
2019-03-29T19:59:02.395Z,29.38
2019-03-29T20:01:28.739Z,29.60
2019-03-29T20:03:54.934Z,29.19
2019-03-29T20:06:21.103Z,29.89
2019-03-29T20:08:47.262Z,29.71
2019-03-29T20:11:13.425Z,29.91
2019-03-29T20:13:39.728Z,29.72
2019-03-29T20:16:05.895Z,28.83
2019-03-29T20:18:32.056Z,28.71
2019-03-29T20:20:58.263Z,28.59
2019-03-29T20:23:24.448Z,28.28
2019-03-29T20:25:50.728Z,28.05
2019-03-29T20:28:16.966Z,27.64
2019-03-29T20:30:43.176Z,28.00
2019-03-29T20:33:09.252Z,27.68
2019-03-29T20:35:35.468Z,27.92
2019-03-29T20:38:01.648Z,28.65
2019-03-29T20:40:27.831Z,27.66
2019-03-29T20:42:54.060Z,28.17
2019-03-29T20:45:20.284Z,28.51
2019-03-29T20:47:46.459Z,28.14
2019-03-29T20:50:13.160Z,28.06
2019-03-29T20:52:39.344Z,28.15
2019-03-29T20:55:06.726Z,28.18
2019-03-29T20:57:32.941Z,28.24
2019-03-29T20:59:59.119Z,28.88
2019-03-29T21:02:25.309Z,28.90
2019-03-29T21:04:51.519Z,28.71
2019-03-29T21:07:17.708Z,28.30
2019-03-29T21:09:43.986Z,27.78
2019-03-29T21:12:10.200Z,28.42
2019-03-29T21:14:36.380Z,27.55
2019-03-29T21:17:02.654Z,27.11
2019-03-29T21:19:28.889Z,27.21
2019-03-29T21:21:55.068Z,27.22
2019-03-29T21:24:21.560Z,27.42
2019-03-29T21:26:47.786Z,27.67
2019-03-29T21:29:14.064Z,27.44
2019-03-29T21:31:40.240Z,27.49
2019-03-29T21:34:06.454Z,27.57
2019-03-29T21:36:32.625Z,27.69
2019-03-29T21:38:58.801Z,28.39
2019-03-29T21:41:25.033Z,28.94
2019-03-29T21:43:51.228Z,29.07
2019-03-29T21:46:17.414Z,28.65
2019-03-29T21:48:43.644Z,29.50
2019-03-29T21:51:09.807Z,29.35
2019-03-29T21:53:35.988Z,28.95
2019-03-29T21:56:02.243Z,29.32
2019-03-29T21:58:28.420Z,29.46
2019-03-29T22:00:54.592Z,29.61
2019-03-29T22:03:20.793Z,30.03
2019-03-29T22:05:47.421Z,28.36
2019-03-29T22:08:13.868Z,28.17
2019-03-29T22:10:40.150Z,28.26
2019-03-29T22:13:06.318Z,28.68
2019-03-29T22:15:32.504Z,29.18
2019-03-29T22:17:58.705Z,29.46
2019-03-29T22:20:24.880Z,29.40
2019-03-29T22:22:51.053Z,29.79
2019-03-29T22:25:19.152Z,30.04
2019-03-29T22:27:45.435Z,30.12
2019-03-29T22:30:11.720Z,30.98
2019-03-29T22:32:37.939Z,29.64
2019-03-29T22:35:05.914Z,29.63
2019-03-29T22:37:32.103Z,29.96
2019-03-29T22:39:58.345Z,30.01
2019-03-29T22:42:24.620Z,29.28
2019-03-29T22:44:50.804Z,28.61
2019-03-29T22:47:17.016Z,28.43
2019-03-29T22:49:43.200Z,28.37
2019-03-29T22:52:09.365Z,28.22
2019-03-29T22:54:35.598Z,27.46
2019-03-29T22:57:01.779Z,28.01
2019-03-29T22:59:27.968Z,27.42
2019-03-29T23:01:54.198Z,27.49
2019-03-29T23:04:20.553Z,28.52
2019-03-29T23:06:46.728Z,28.07
2019-03-29T23:09:12.936Z,27.41
2019-03-29T23:11:39.178Z,27.84
2019-03-29T23:14:05.358Z,27.87
2019-03-29T23:16:31.574Z,28.15
2019-03-29T23:19:06.325Z,29.08
2019-03-29T23:21:25.821Z,30.32
2019-03-29T23:23:52.008Z,30.88
2019-03-29T23:26:18.170Z,30.84
2019-03-29T23:28:44.341Z,30.01
2019-03-29T23:31:10.540Z,31.28
2019-03-29T23:33:36.710Z,30.49
2019-03-29T23:36:02.866Z,30.21
2019-03-29T23:38:29.085Z,30.96
2019-03-29T23:40:55.248Z,30.49
2019-03-29T23:43:21.503Z,30.77
2019-03-29T23:45:47.798Z,30.87
2019-03-29T23:48:13.959Z,30.96
2019-03-29T23:50:40.018Z,31.14
2019-03-29T23:53:06.220Z,30.82
2019-03-29T23:55:32.376Z,30.85
2019-03-29T23:57:58.544Z,30.71
